Time;durP1;ratioP1;P1;durP2;ratioP2;P2;SDS_P1;SDS_P2;PMS_P1;PMS_P2;Temp;Humidity;BMP_temperature;BMP_pressure;BME280_temperature;BME280_humidity;BME280_pressure;Samples;Min_cycle;Max_cycle;Signal;HPM_P1;HPM_P2
2021/01/27 00:02:18;;;;;;;13.52;5.50;;;-0.10;99.90;;;;;;4932893;29;20248;-72
2021/01/27 00:04:45;;;;;;;13.50;6.28;;;-0.10;99.90;;;;;;4942729;29;20536;-71
2021/01/27 00:07:11;;;;;;;17.40;6.53;;;-0.10;99.90;;;;;;4930440;29;20147;-71
2021/01/27 00:09:38;;;;;;;15.35;6.75;;;-0.10;99.90;;;;;;4925561;29;20051;-71
2021/01/27 00:12:04;;;;;;;15.35;7.32;;;0.00;99.90;;;;;;4932160;29;20077;-71
2021/01/27 00:14:31;;;;;;;13.75;6.80;;;0.00;99.90;;;;;;4928407;29;20090;-71
2021/01/27 00:16:57;;;;;;;11.63;5.25;;;-0.10;99.90;;;;;;4932272;29;20075;-71
2021/01/27 00:19:23;;;;;;;12.90;7.00;;;-0.10;99.90;;;;;;4936200;29;20070;-71
2021/01/27 00:21:50;;;;;;;16.98;7.03;;;-0.10;99.90;;;;;;4931083;29;20872;-71
2021/01/27 00:24:16;;;;;;;19.05;8.25;;;-0.10;99.90;;;;;;4932080;29;20071;-71
2021/01/27 00:26:42;;;;;;;15.98;6.82;;;-0.10;99.90;;;;;;4942044;28;20075;-70
2021/01/27 00:29:09;;;;;;;21.13;8.43;;;-0.10;99.90;;;;;;4933797;28;20141;-71
2021/01/27 00:31:35;;;;;;;13.57;6.85;;;-0.20;99.90;;;;;;4933840;29;20531;-70
2021/01/27 00:34:03;;;;;;;14.80;7.32;;;-0.20;99.90;;;;;;4936831;28;20134;-71
2021/01/27 00:36:29;;;;;;;14.15;8.05;;;-0.20;99.90;;;;;;4947697;29;22039;-71
2021/01/27 00:38:55;;;;;;;17.08;8.93;;;-0.20;99.90;;;;;;4934015;29;20478;-71
2021/01/27 00:41:22;;;;;;;13.35;6.95;;;-0.20;99.90;;;;;;4931729;29;20079;-71
2021/01/27 00:43:49;;;;;;;19.25;8.25;;;-0.30;99.90;;;;;;4935602;29;20052;-71
2021/01/27 00:46:15;;;;;;;25.13;8.18;;;-0.30;99.90;;;;;;4932366;29;20139;-71
2021/01/27 00:48:42;;;;;;;18.58;7.53;;;-0.30;99.90;;;;;;4930698;29;20134;-72
2021/01/27 00:51:08;;;;;;;13.13;7.05;;;-0.30;99.90;;;;;;4932629;29;20043;-71
2021/01/27 00:53:35;;;;;;;15.75;8.55;;;-0.40;99.90;;;;;;4932931;29;20048;-71
2021/01/27 00:56:01;;;;;;;15.52;7.95;;;-0.40;99.90;;;;;;4947810;29;20077;-71
2021/01/27 00:58:28;;;;;;;17.23;8.23;;;-0.30;99.90;;;;;;4942787;28;20094;-71
2021/01/27 01:00:54;;;;;;;16.40;8.30;;;-0.30;99.90;;;;;;4944628;29;20131;-71
2021/01/27 01:03:20;;;;;;;17.50;7.72;;;-0.30;99.90;;;;;;4945899;28;20059;-71
2021/01/27 01:05:47;;;;;;;14.32;8.15;;;-0.40;99.90;;;;;;4939693;28;20066;-71
2021/01/27 01:08:16;;;;;;;17.35;9.30;;;-0.30;99.90;;;;;;4932475;29;20060;-71
2021/01/27 01:10:48;;;;;;;19.20;9.32;;;-0.40;99.90;;;;;;4933532;28;20214;-71
2021/01/27 01:13:22;;;;;;;17.38;8.10;;;-0.30;99.90;;;;;;4942332;29;20190;-71
2021/01/27 01:15:49;;;;;;;17.40;9.57;;;-0.40;99.90;;;;;;4931794;29;20416;-71
2021/01/27 01:18:15;;;;;;;21.30;10.23;;;-0.30;99.90;;;;;;4930863;29;20127;-71
2021/01/27 01:20:42;;;;;;;15.48;8.27;;;-0.30;99.90;;;;;;4932412;29;20052;-72
2021/01/27 01:23:10;;;;;;;23.92;11.35;;;-0.20;99.90;;;;;;4929816;29;20051;-71
2021/01/27 01:25:36;;;;;;;21.98;10.30;;;-0.20;99.90;;;;;;4955591;28;20078;-71
2021/01/27 01:28:04;;;;;;;19.10;9.50;;;-0.10;99.90;;;;;;4946320;28;20147;-71
2021/01/27 01:30:37;;;;;;;19.92;9.25;;;-0.10;99.90;;;;;;4932405;28;20052;-71
2021/01/27 01:33:27;;;;;;;17.30;8.55;;;0.00;99.90;;;;;;4931492;29;20058;-70
2021/01/27 01:35:54;;;;;;;19.73;8.65;;;0.00;99.90;;;;;;4942336;28;20131;-70
2021/01/27 01:38:21;;;;;;;19.35;8.85;;;0.00;99.90;;;;;;4930804;29;20123;-70
2021/01/27 01:40:54;;;;;;;21.05;9.80;;;0.00;99.90;;;;;;4932115;29;20416;-69
2021/01/27 01:43:27;;;;;;;22.92;9.38;;;-0.10;99.90;;;;;;4937282;29;20134;-70
2021/01/27 01:46:13;;;;;;;18.10;7.93;;;-0.10;99.90;;;;;;4933049;29;21260;-70
2021/01/27 01:49:09;;;;;;;18.90;8.68;;;-0.10;99.90;;;;;;4931340;29;20047;-69
2021/01/27 01:51:51;;;;;;;19.52;9.75;;;0.00;99.90;;;;;;4921079;29;20126;-70
2021/01/27 01:54:39;;;;;;;15.80;8.80;;;0.00;99.90;;;;;;4940814;29;20475;-69
2021/01/27 01:57:15;;;;;;;18.85;9.25;;;0.00;99.90;;;;;;4931346;29;20463;-70
2021/01/27 01:59:49;;;;;;;15.80;7.53;;;0.00;99.90;;;;;;4930413;29;20122;-70
2021/01/27 02:02:15;;;;;;;20.30;8.40;;;-0.10;99.90;;;;;;4933581;29;20134;-70
2021/01/27 02:05:00;;;;;;;16.45;8.50;;;0.00;99.90;;;;;;4927415;29;20048;-70
2021/01/27 02:07:30;;;;;;;14.23;7.97;;;0.00;99.90;;;;;;4930736;29;20489;-70
2021/01/27 02:09:56;;;;;;;18.20;8.25;;;0.00;99.90;;;;;;4937229;29;20054;-70
2021/01/27 02:12:44;;;;;;;15.30;7.93;;;0.00;99.90;;;;;;4932427;29;20097;-70
2021/01/27 02:15:19;;;;;;;13.98;7.38;;;0.00;99.90;;;;;;4932756;29;20132;-71
2021/01/27 02:17:51;;;;;;;17.35;8.20;;;0.00;99.90;;;;;;4943586;28;20055;-73
2021/01/27 02:20:59;;;;;;;14.38;6.70;;;0.00;99.90;;;;;;4931764;29;20130;-69
2021/01/27 02:23:59;;;;;;;17.13;7.85;;;0.00;99.90;;;;;;4933934;29;20502;-71
2021/01/27 02:26:31;;;;;;;11.27;5.07;;;0.00;99.90;;;;;;4947874;28;20138;-71
2021/01/27 02:29:18;;;;;;;13.65;6.68;;;0.00;99.90;;;;;;4930407;29;20252;-71
2021/01/27 02:31:57;;;;;;;17.48;8.43;;;0.00;99.90;;;;;;4930886;29;20063;-71
2021/01/27 02:34:35;;;;;;;12.40;6.72;;;0.10;99.90;;;;;;4930927;29;20094;-72
2021/01/27 02:37:09;;;;;;;18.35;7.43;;;0.10;99.90;;;;;;4929683;29;20122;-71
2021/01/27 02:39:48;;;;;;;18.05;6.95;;;0.10;99.90;;;;;;4930960;29;20115;-71
2021/01/27 02:42:14;;;;;;;15.27;7.68;;;0.10;99.90;;;;;;4927549;29;20052;-72
2021/01/27 02:44:47;;;;;;;16.42;7.80;;;0.10;99.90;;;;;;4930383;29;20059;-71
2021/01/27 02:47:26;;;;;;;22.25;8.35;;;0.10;99.90;;;;;;4931101;29;20058;-72
2021/01/27 02:49:59;;;;;;;15.63;8.15;;;0.10;99.90;;;;;;4930792;29;20043;-71
2021/01/27 02:52:32;;;;;;;15.90;7.65;;;0.10;99.90;;;;;;4937095;29;20139;-70
2021/01/27 02:55:18;;;;;;;19.25;7.85;;;0.10;99.90;;;;;;4940587;29;20203;-71
2021/01/27 02:57:54;;;;;;;15.25;7.47;;;0.20;99.90;;;;;;4932404;29;20138;-70
2021/01/27 03:00:26;;;;;;;16.95;7.28;;;0.20;99.90;;;;;;4936746;29;20132;-71
2021/01/27 03:03:04;;;;;;;14.88;7.03;;;0.20;99.90;;;;;;4941968;28;20123;-71
2021/01/27 03:05:38;;;;;;;15.32;6.40;;;0.20;99.90;;;;;;4938219;29;20138;-71
2021/01/27 03:08:10;;;;;;;14.52;6.50;;;0.20;99.90;;;;;;4934136;29;20048;-70
2021/01/27 03:11:14;;;;;;;14.57;7.07;;;0.20;99.90;;;;;;4934156;29;20052;-71
2021/01/27 03:13:44;;;;;;;18.05;9.18;;;0.20;99.90;;;;;;4935988;29;20077;-71
2021/01/27 03:16:18;;;;;;;18.48;8.23;;;0.30;99.90;;;;;;4925257;29;20121;-69
2021/01/27 03:18:58;;;;;;;16.38;7.25;;;0.30;99.90;;;;;;4933586;29;20043;-69
2021/01/27 03:21:32;;;;;;;20.50;6.72;;;0.30;99.90;;;;;;4933543;29;20103;-68
2021/01/27 03:24:04;;;;;;;22.27;8.07;;;0.40;99.90;;;;;;4935749;29;20055;-69
2021/01/27 03:26:44;;;;;;;21.50;7.35;;;0.40;99.90;;;;;;4932309;29;20151;-71
2021/01/27 03:29:28;;;;;;;22.70;7.07;;;0.40;99.90;;;;;;4931208;29;20323;-71
2021/01/27 03:31:58;;;;;;;18.50;7.25;;;0.50;99.90;;;;;;4931240;29;20059;-71
2021/01/27 03:34:45;;;;;;;22.95;7.47;;;0.50;99.90;;;;;;4934400;29;20418;-70
2021/01/27 03:37:30;;;;;;;20.15;8.30;;;0.50;99.90;;;;;;4943437;29;20044;-70
2021/01/27 03:40:03;;;;;;;24.08;9.07;;;0.40;99.90;;;;;;4933419;29;20129;-70
2021/01/27 03:43:03;;;;;;;20.58;8.93;;;0.50;99.90;;;;;;4928528;29;20223;-71
2021/01/27 03:45:34;;;;;;;21.02;9.43;;;0.40;99.90;;;;;;4935759;28;20047;-71
2021/01/27 03:48:41;;;;;;;20.63;8.00;;;0.40;99.90;;;;;;4931833;29;20691;-70
2021/01/27 03:51:10;;;;;;;23.48;9.75;;;0.40;99.90;;;;;;4934295;29;20071;-70
2021/01/27 03:53:38;;;;;;;25.15;10.07;;;0.30;99.90;;;;;;4930970;29;20363;-70
2021/01/27 03:56:36;;;;;;;27.13;10.80;;;0.30;99.90;;;;;;4936585;28;20562;-70
2021/01/27 03:59:02;;;;;;;20.20;8.23;;;0.30;99.90;;;;;;4927521;29;20521;-70
2021/01/27 04:01:29;;;;;;;24.02;9.80;;;0.20;99.90;;;;;;4932079;29;20397;-70
2021/01/27 04:03:56;;;;;;;23.10;11.30;;;0.20;99.90;;;;;;4931996;29;20052;-70
2021/01/27 04:06:23;;;;;;;24.45;10.95;;;0.20;99.90;;;;;;4932621;29;20142;-69
2021/01/27 04:08:49;;;;;;;26.85;11.35;;;0.20;99.90;;;;;;4943064;28;20075;-70
2021/01/27 04:11:15;;;;;;;25.05;11.35;;;0.30;99.90;;;;;;4948383;29;20052;-70
2021/01/27 04:13:42;;;;;;;23.92;10.63;;;0.40;99.90;;;;;;4931843;29;20091;-69
2021/01/27 04:16:08;;;;;;;21.60;9.73;;;0.30;99.90;;;;;;4931943;29;20071;-70
2021/01/27 04:18:35;;;;;;;18.25;7.95;;;0.30;99.90;;;;;;4946466;28;20472;-69
2021/01/27 04:21:02;;;;;;;24.05;9.50;;;0.30;99.90;;;;;;4933140;29;20573;-70
2021/01/27 04:23:28;;;;;;;24.33;10.52;;;0.20;99.90;;;;;;4934380;29;20129;-71
2021/01/27 04:25:54;;;;;;;19.15;9.18;;;0.30;99.90;;;;;;4932503;29;20048;-71
2021/01/27 04:28:21;;;;;;;22.90;10.45;;;0.30;99.90;;;;;;4935318;29;20051;-71
2021/01/27 04:30:47;;;;;;;20.23;10.70;;;0.30;99.90;;;;;;4938008;28;20052;-71
2021/01/27 04:33:14;;;;;;;21.45;10.05;;;0.20;99.90;;;;;;4934582;29;20154;-70
2021/01/27 04:35:40;;;;;;;25.02;9.32;;;0.30;99.90;;;;;;4932377;29;20051;-70
2021/01/27 04:38:07;;;;;;;20.00;8.60;;;0.30;99.90;;;;;;4933301;29;20123;-70
2021/01/27 04:40:41;;;;;;;23.42;9.60;;;0.30;99.90;;;;;;4932954;29;20361;-70
2021/01/27 04:43:33;;;;;;;21.80;10.40;;;0.30;99.90;;;;;;4933003;29;20150;-69
2021/01/27 04:46:33;;;;;;;34.83;12.95;;;0.30;99.90;;;;;;4934398;29;20131;-70
2021/01/27 04:49:17;;;;;;;25.38;10.32;;;0.20;99.90;;;;;;4931670;29;20086;-70
2021/01/27 04:51:53;;;;;;;25.88;11.25;;;0.30;99.90;;;;;;4936263;29;20503;-70
2021/01/27 04:54:43;;;;;;;19.75;10.25;;;0.40;99.90;;;;;;4933216;29;20139;-70
2021/01/27 04:57:15;;;;;;;27.27;10.35;;;0.40;99.90;;;;;;4926875;29;20131;-70
2021/01/27 04:59:47;;;;;;;24.73;9.90;;;0.30;99.90;;;;;;4928314;29;20587;-70
2021/01/27 05:02:58;;;;;;;29.92;12.55;;;0.30;99.90;;;;;;4930724;29;20479;-70
2021/01/27 05:05:29;;;;;;;20.55;10.25;;;0.30;99.90;;;;;;4889911;29;20113;-70
2021/01/27 05:08:09;;;;;;;25.45;11.70;;;0.30;99.90;;;;;;4890140;29;20097;-70
2021/01/27 05:10:46;;;;;;;24.27;11.98;;;0.40;99.90;;;;;;4914430;29;20130;-70
2021/01/27 05:13:24;;;;;;;28.67;12.30;;;0.40;99.90;;;;;;4936155;29;20091;-70
2021/01/27 05:15:53;;;;;;;23.83;9.70;;;0.40;99.90;;;;;;4934046;29;20303;-70
2021/01/27 05:18:20;;;;;;;28.10;12.55;;;0.40;99.90;;;;;;4930364;29;20142;-70
2021/01/27 05:20:48;;;;;;;23.40;11.13;;;0.40;99.90;;;;;;4930967;29;20043;-70
2021/01/27 05:23:16;;;;;;;22.08;10.57;;;0.30;99.90;;;;;;4930212;29;20056;-70
2021/01/27 05:25:55;;;;;;;24.88;11.45;;;0.30;99.90;;;;;;4932012;29;20475;-70
2021/01/27 05:28:27;;;;;;;24.58;10.85;;;0.30;99.90;;;;;;4929393;29;20332;-70
2021/01/27 05:30:55;;;;;;;15.95;8.10;;;0.30;99.90;;;;;;4930161;29;20126;-70
2021/01/27 05:33:47;;;;;;;26.75;10.40;;;0.30;99.90;;;;;;4934577;29;20419;-71
2021/01/27 05:36:28;;;;;;;18.92;9.32;;;0.30;99.90;;;;;;4936115;28;20091;-70
2021/01/27 05:39:11;;;;;;;23.17;9.80;;;0.30;99.90;;;;;;4938089;29;20126;-70
2021/01/27 05:41:37;;;;;;;23.43;9.73;;;0.20;99.90;;;;;;4933353;29;20122;-70
2021/01/27 05:44:15;;;;;;;25.58;12.10;;;0.20;99.90;;;;;;4940575;28;20130;-71
2021/01/27 05:46:42;;;;;;;26.10;11.75;;;0.20;99.90;;;;;;4923572;29;20054;-70
2021/01/27 05:49:30;;;;;;;31.05;13.45;;;0.30;99.90;;;;;;4928080;29;20059;-70
2021/01/27 05:52:14;;;;;;;20.23;10.10;;;0.40;99.90;;;;;;4932345;29;20162;-70
2021/01/27 05:54:41;;;;;;;21.70;10.70;;;0.30;99.90;;;;;;4931210;29;20429;-70
2021/01/27 05:57:25;;;;;;;20.25;9.50;;;0.30;99.90;;;;;;4931468;29;20068;-69
2021/01/27 06:00:22;;;;;;;24.52;9.75;;;0.30;99.90;;;;;;4930983;29;20054;-70
2021/01/27 06:02:50;;;;;;;19.23;8.75;;;0.20;99.90;;;;;;4923780;29;20135;-70
2021/01/27 06:05:19;;;;;;;19.20;10.02;;;0.20;99.90;;;;;;4930831;29;20531;-69
2021/01/27 06:07:46;;;;;;;22.63;10.63;;;0.30;99.90;;;;;;4944997;28;20078;-70
2021/01/27 06:10:34;;;;;;;23.38;10.32;;;0.30;99.90;;;;;;4931159;28;20962;-70
2021/01/27 06:13:17;;;;;;;18.20;9.27;;;0.30;99.90;;;;;;4934390;29;20467;-70
2021/01/27 06:15:44;;;;;;;18.05;8.60;;;0.20;99.90;;;;;;4931377;29;20051;-70
2021/01/27 06:18:32;;;;;;;15.02;7.40;;;0.20;99.90;;;;;;4929458;29;20135;-70
2021/01/27 06:21:38;;;;;;;17.95;8.13;;;0.20;99.90;;;;;;4931111;29;20044;-69
2021/01/27 06:24:17;;;;;;;15.48;8.13;;;0.20;99.90;;;;;;4939627;28;20051;-70
2021/01/27 06:27:04;;;;;;;18.05;8.77;;;0.20;99.90;;;;;;4949071;28;20475;-70
2021/01/27 06:29:33;;;;;;;14.75;6.32;;;0.20;99.90;;;;;;4940361;29;20181;-70
2021/01/27 06:32:37;;;;;;;13.98;7.20;;;0.20;99.90;;;;;;4934012;29;20130;-70
2021/01/27 06:35:37;;;;;;;13.40;7.10;;;0.20;99.90;;;;;;4950406;28;20047;-70
2021/01/27 06:38:09;;;;;;;17.83;7.80;;;0.10;99.90;;;;;;4916050;29;20052;-70
2021/01/27 06:40:39;;;;;;;12.50;6.10;;;0.20;99.90;;;;;;4941435;29;20047;-70
2021/01/27 06:43:32;;;;;;;13.10;6.00;;;0.20;99.90;;;;;;4933876;29;20043;-71
2021/01/27 06:46:22;;;;;;;9.93;5.78;;;0.20;99.90;;;;;;4935122;29;20139;-71
2021/01/27 06:49:19;;;;;;;14.05;6.88;;;0.10;99.90;;;;;;4915049;29;20487;-68
2021/01/27 06:52:17;;;;;;;8.70;4.68;;;0.20;99.90;;;;;;4936111;29;20065;-71
2021/01/27 06:55:02;;;;;;;12.82;6.63;;;0.10;99.90;;;;;;4939658;29;20043;-71
2021/01/27 06:57:31;;;;;;;9.52;4.55;;;0.20;99.90;;;;;;4933831;28;20067;-69
2021/01/27 07:00:05;;;;;;;10.52;4.13;;;0.10;99.90;;;;;;4933371;29;20040;-71
2021/01/27 07:02:43;;;;;;;12.10;4.68;;;0.10;99.90;;;;;;4937240;29;20083;-69
2021/01/27 07:05:44;;;;;;;8.80;5.05;;;0.10;99.90;;;;;;4933430;29;20435;-70
2021/01/27 07:08:20;;;;;;;12.40;4.53;;;0.10;99.90;;;;;;4935648;28;20314;-69
2021/01/27 07:11:03;;;;;;;9.80;5.10;;;0.10;99.90;;;;;;4932609;29;20134;-69
2021/01/27 07:13:52;;;;;;;9.90;3.95;;;0.10;99.90;;;;;;4931200;29;20080;-71
2021/01/27 07:16:56;;;;;;;9.35;4.72;;;0.20;99.90;;;;;;4932917;28;20051;-70
2021/01/27 07:19:36;;;;;;;7.88;3.72;;;0.20;99.90;;;;;;4931081;29;20074;-71
2021/01/27 07:22:24;;;;;;;8.15;3.92;;;0.10;99.90;;;;;;4933170;29;20142;-71
2021/01/27 07:25:11;;;;;;;8.68;3.97;;;0.10;99.90;;;;;;4932263;29;20143;-71
2021/01/27 07:27:52;;;;;;;6.03;3.30;;;0.20;99.90;;;;;;4933104;29;20602;-70
2021/01/27 07:30:22;;;;;;;7.80;3.25;;;0.20;99.90;;;;;;4931594;29;20060;-73
2021/01/27 07:32:59;;;;;;;6.10;3.35;;;0.20;99.90;;;;;;4925994;29;20107;-69
2021/01/27 07:35:38;;;;;;;7.47;3.00;;;0.20;99.90;;;;;;4944334;29;20126;-69
2021/01/27 07:38:10;;;;;;;11.18;4.35;;;0.20;99.90;;;;;;4932795;29;20099;-71
2021/01/27 07:40:44;;;;;;;6.63;3.17;;;0.20;99.90;;;;;;4932944;29;20451;-71
2021/01/27 07:43:21;;;;;;;7.30;3.75;;;0.20;99.90;;;;;;4933687;29;20056;-71
2021/01/27 07:45:51;;;;;;;7.35;2.95;;;0.20;99.90;;;;;;4933286;29;20131;-71
2021/01/27 07:48:24;;;;;;;8.23;3.20;;;0.20;99.90;;;;;;4932079;29;20416;-71
2021/01/27 07:50:56;;;;;;;6.75;3.08;;;0.20;99.90;;;;;;4935249;29;20321;-71
2021/01/27 07:53:45;;;;;;;5.03;2.65;;;0.20;99.90;;;;;;4928544;29;20483;-71
2021/01/27 07:56:35;;;;;;;6.13;2.92;;;0.20;99.90;;;;;;4945022;29;20056;-71
2021/01/27 07:59:22;;;;;;;4.15;2.03;;;0.20;99.90;;;;;;4935237;28;20043;-71
2021/01/27 08:01:58;;;;;;;4.07;1.77;;;0.20;99.90;;;;;;4931992;29;20043;-71
2021/01/27 08:04:49;;;;;;;4.10;1.90;;;0.10;99.90;;;;;;4930959;29;20048;-71
2021/01/27 08:07:57;;;;;;;6.05;2.13;;;0.20;99.90;;;;;;4930878;29;20122;-70
2021/01/27 08:10:28;;;;;;;4.15;1.70;;;0.20;99.90;;;;;;4938923;28;20135;-70
2021/01/27 08:13:15;;;;;;;5.13;2.25;;;0.20;99.90;;;;;;4927159;29;20055;-71
2021/01/27 08:15:58;;;;;;;3.83;1.17;;;0.20;99.90;;;;;;4931958;29;20482;-71
2021/01/27 08:18:24;;;;;;;3.90;1.10;;;0.20;99.90;;;;;;4937464;28;20052;-71
2021/01/27 08:21:28;;;;;;;2.70;1.10;;;0.30;99.90;;;;;;4932817;29;20051;-71
2021/01/27 08:23:55;;;;;;;1.95;0.82;;;0.30;99.90;;;;;;4931470;29;20130;-71
2021/01/27 08:26:41;;;;;;;2.10;0.82;;;0.40;99.90;;;;;;4931571;29;20125;-71
2021/01/27 08:29:10;;;;;;;2.00;0.80;;;0.40;99.90;;;;;;4937769;28;20145;-71
2021/01/27 08:31:36;;;;;;;1.63;0.70;;;0.50;99.90;;;;;;4933582;29;20134;-71
2021/01/27 08:34:04;;;;;;;1.77;0.80;;;0.50;99.90;;;;;;4939092;28;20047;-71
2021/01/27 08:36:31;;;;;;;1.52;0.85;;;0.50;99.90;;;;;;4931423;29;20114;-71
2021/01/27 08:38:58;;;;;;;1.52;0.77;;;0.50;99.90;;;;;;4930513;29;20545;-71
2021/01/27 08:41:52;;;;;;;2.50;0.63;;;0.50;99.90;;;;;;4931611;29;20170;-71
2021/01/27 08:44:22;;;;;;;2.17;0.80;;;0.60;99.90;;;;;;4935028;29;20131;-70
2021/01/27 08:46:52;;;;;;;1.60;0.80;;;0.60;99.90;;;;;;4932584;28;20171;-70
2021/01/27 08:49:37;;;;;;;1.65;0.73;;;0.70;99.90;;;;;;4936125;28;20055;-71
2021/01/27 08:52:09;;;;;;;1.05;0.55;;;0.70;99.90;;;;;;4931762;29;20151;-70
2021/01/27 08:54:39;;;;;;;2.28;0.90;;;0.70;99.90;;;;;;4928745;29;20044;-70
2021/01/27 08:57:30;;;;;;;2.78;0.73;;;0.70;99.90;;;;;;4929236;29;20076;-70
2021/01/27 09:00:05;;;;;;;2.28;0.80;;;0.70;99.90;;;;;;4931880;29;20465;-70
2021/01/27 09:02:56;;;;;;;1.63;0.82;;;0.70;99.90;;;;;;4929324;29;20222;-70
2021/01/27 09:05:25;;;;;;;2.40;0.80;;;0.70;99.90;;;;;;4925424;29;20151;-70
2021/01/27 09:07:58;;;;;;;1.63;0.80;;;0.70;99.90;;;;;;4929941;29;20238;-70
2021/01/27 09:10:33;;;;;;;1.95;0.60;;;0.70;99.90;;;;;;4930958;29;20060;-70
2021/01/27 09:13:19;;;;;;;3.70;0.60;;;0.70;99.90;;;;;;4929240;29;20047;-70
2021/01/27 09:15:54;;;;;;;4.50;0.60;;;0.70;99.90;;;;;;4931209;29;20130;-69
2021/01/27 09:18:21;;;;;;;1.05;0.60;;;0.70;99.90;;;;;;4930602;29;20051;-70
2021/01/27 09:20:49;;;;;;;1.67;0.60;;;0.70;99.90;;;;;;4930444;29;20044;-69
2021/01/27 09:23:18;;;;;;;1.73;0.60;;;0.80;99.90;;;;;;4943816;29;20083;-70
2021/01/27 09:25:50;;;;;;;1.55;0.47;;;0.90;99.90;;;;;;4930333;29;20526;-70
2021/01/27 09:28:23;;;;;;;1.30;0.50;;;0.90;99.90;;;;;;4930791;29;20090;-70
2021/01/27 09:30:51;;;;;;;2.53;0.60;;;0.90;99.90;;;;;;4928578;29;20043;-69
2021/01/27 09:33:28;;;;;;;8.45;2.67;;;0.90;99.90;;;;;;4930440;29;20398;-70
2021/01/27 09:36:13;;;;;;;3.05;0.80;;;0.90;99.90;;;;;;4930964;29;20427;-69
2021/01/27 09:38:40;;;;;;;2.42;0.73;;;0.90;99.90;;;;;;4930231;29;20054;-69
2021/01/27 09:41:15;;;;;;;1.42;0.65;;;1.00;99.90;;;;;;4927758;29;20044;-70
2021/01/27 09:43:44;;;;;;;1.35;0.65;;;1.00;99.90;;;;;;4931026;29;20074;-70
2021/01/27 09:46:33;;;;;;;1.15;0.57;;;1.00;99.90;;;;;;4930207;29;20055;-70
2021/01/27 09:49:09;;;;;;;2.53;0.70;;;1.00;99.90;;;;;;4933645;28;20194;-69
2021/01/27 09:51:37;;;;;;;1.23;0.50;;;1.00;99.90;;;;;;4929219;29;20056;-69
2021/01/27 09:54:05;;;;;;;2.38;0.88;;;0.90;99.90;;;;;;4931070;29;20051;-69
2021/01/27 09:56:32;;;;;;;2.88;0.80;;;1.00;99.90;;;;;;4929589;29;20586;-69
2021/01/27 09:59:00;;;;;;;2.33;0.75;;;1.00;99.90;;;;;;4928483;29;20052;-70
2021/01/27 10:01:29;;;;;;;1.08;0.70;;;1.00;99.90;;;;;;4943598;28;20051;-69
2021/01/27 10:04:11;;;;;;;5.85;1.15;;;0.90;99.90;;;;;;4931135;29;20052;-69
2021/01/27 10:06:42;;;;;;;2.47;0.80;;;0.90;99.90;;;;;;4928280;29;20515;-70
2021/01/27 10:09:46;;;;;;;3.05;1.05;;;1.00;99.90;;;;;;4940929;29;20055;-70
2021/01/27 10:12:24;;;;;;;4.78;1.33;;;1.00;99.90;;;;;;4925754;29;20098;-70
2021/01/27 10:15:15;;;;;;;3.83;1.10;;;1.10;99.90;;;;;;4930130;29;20044;-70
2021/01/27 10:17:42;;;;;;;2.35;0.98;;;1.10;99.90;;;;;;4922592;29;20087;-70
2021/01/27 10:20:26;;;;;;;2.88;1.23;;;1.00;99.90;;;;;;4929956;29;20479;-71
2021/01/27 10:22:59;;;;;;;3.05;0.80;;;1.00;99.90;;;;;;4921145;29;20471;-70
2021/01/27 10:25:30;;;;;;;1.40;0.60;;;1.00;99.90;;;;;;4921691;29;20060;-70
2021/01/27 10:28:07;;;;;;;2.30;1.00;;;1.00;99.90;;;;;;4923410;29;20138;-70
2021/01/27 10:30:39;;;;;;;2.40;1.02;;;1.00;99.90;;;;;;4930575;29;20139;-70
2021/01/27 10:33:43;;;;;;;6.65;1.17;;;1.10;99.90;;;;;;4929896;29;20079;-71
2021/01/27 10:36:45;;;;;;;1.27;0.73;;;1.10;99.90;;;;;;4926273;29;20134;-70
2021/01/27 10:39:27;;;;;;;3.58;1.10;;;1.00;99.90;;;;;;4929676;28;20115;-70
2021/01/27 10:42:14;;;;;;;2.38;1.00;;;1.00;99.90;;;;;;4924704;29;20048;-70
2021/01/27 10:45:12;;;;;;;2.67;1.27;;;0.90;99.90;;;;;;4929202;29;20070;-71
2021/01/27 10:47:40;;;;;;;4.13;1.20;;;0.90;99.90;;;;;;4936312;29;20055;-70
2021/01/27 10:50:08;;;;;;;5.53;1.20;;;0.80;99.90;;;;;;4942686;28;20055;-70
2021/01/27 10:52:36;;;;;;;2.28;1.20;;;0.80;99.90;;;;;;4922796;29;20052;-70
2021/01/27 10:55:10;;;;;;;2.28;1.10;;;0.70;99.90;;;;;;4931163;29;20107;-70
2021/01/27 10:57:37;;;;;;;4.22;1.85;;;0.70;99.90;;;;;;4923565;29;20055;-70
2021/01/27 11:00:08;;;;;;;2.83;1.40;;;0.60;99.90;;;;;;4926260;29;20048;-70
2021/01/27 11:02:35;;;;;;;2.83;1.17;;;0.70;99.90;;;;;;4920624;29;20151;-70
2021/01/27 11:05:02;;;;;;;3.47;1.77;;;0.60;99.90;;;;;;4928697;29;20264;-70
2021/01/27 11:07:28;;;;;;;3.15;1.70;;;0.60;99.90;;;;;;4929689;29;20078;-70
2021/01/27 11:09:55;;;;;;;6.13;2.10;;;0.60;99.90;;;;;;4933213;29;20056;-70
2021/01/27 11:12:21;;;;;;;3.60;1.73;;;0.60;99.90;;;;;;4947817;28;20098;-70
2021/01/27 11:14:48;;;;;;;3.08;1.58;;;0.60;99.90;;;;;;4934316;29;20491;-70
2021/01/27 11:17:14;;;;;;;6.95;2.35;;;0.60;99.90;;;;;;4925185;29;20416;-70
2021/01/27 11:19:41;;;;;;;6.03;2.90;;;0.50;99.90;;;;;;4932565;29;20043;-70
2021/01/27 11:22:07;;;;;;;5.45;2.30;;;0.70;99.90;;;;;;4929886;29;20135;-70
2021/01/27 11:24:34;;;;;;;6.43;2.80;;;0.60;99.90;;;;;;4933315;29;20130;-69
2021/01/27 11:27:00;;;;;;;6.22;2.90;;;0.70;99.90;;;;;;4930546;29;20053;-70
2021/01/27 11:29:26;;;;;;;4.28;2.35;;;0.80;99.90;;;;;;4928868;29;20134;-70
2021/01/27 11:31:53;;;;;;;8.00;2.90;;;0.70;99.90;;;;;;4945025;29;20114;-70
2021/01/27 11:34:19;;;;;;;7.47;3.88;;;0.80;99.90;;;;;;4935339;29;20059;-70
2021/01/27 11:36:45;;;;;;;6.57;2.75;;;0.80;99.90;;;;;;4942022;28;20051;-70
2021/01/27 11:39:12;;;;;;;4.43;2.03;;;0.80;99.90;;;;;;4929387;29;20494;-70
2021/01/27 11:41:38;;;;;;;7.72;3.92;;;0.80;99.90;;;;;;4930446;29;20126;-70
2021/01/27 11:44:09;;;;;;;6.35;2.95;;;0.90;99.90;;;;;;4931325;29;20122;-70
2021/01/27 11:46:35;;;;;;;8.63;3.10;;;0.90;99.90;;;;;;4932266;29;20123;-70
2021/01/27 11:49:03;;;;;;;8.35;3.10;;;0.80;99.90;;;;;;4932404;29;20716;-70
2021/01/27 11:51:29;;;;;;;6.07;2.85;;;0.90;99.90;;;;;;4929693;29;20255;-69
2021/01/27 11:53:56;;;;;;;5.25;2.92;;;0.90;99.90;;;;;;4943828;28;20635;-69
2021/01/27 11:56:22;;;;;;;5.10;2.47;;;1.00;99.90;;;;;;4929948;29;20093;-70
2021/01/27 11:58:48;;;;;;;8.40;3.15;;;0.90;99.90;;;;;;4945949;28;20047;-70
2021/01/27 12:01:15;;;;;;;7.65;2.42;;;0.90;99.90;;;;;;4930850;29;20527;-69
2021/01/27 12:03:42;;;;;;;6.68;3.00;;;0.80;99.90;;;;;;4931918;29;20079;-71
2021/01/27 12:06:08;;;;;;;5.68;2.58;;;0.80;99.90;;;;;;4946907;28;20525;-70
2021/01/27 12:08:35;;;;;;;7.72;2.97;;;0.70;99.90;;;;;;4940651;28;20355;-70
2021/01/27 12:11:01;;;;;;;6.10;1.98;;;0.70;99.90;;;;;;4931199;29;20051;-70
2021/01/27 12:13:27;;;;;;;4.78;2.92;;;0.80;99.90;;;;;;4924232;29;20404;-70
2021/01/27 12:15:54;;;;;;;6.70;3.45;;;0.90;99.90;;;;;;4931201;29;20158;-70
2021/01/27 12:18:21;;;;;;;7.70;3.72;;;0.90;99.90;;;;;;4930436;29;20056;-70
2021/01/27 12:20:48;;;;;;;6.05;2.70;;;0.90;99.90;;;;;;4930837;29;20086;-70
2021/01/27 12:23:14;;;;;;;5.35;2.53;;;0.80;99.90;;;;;;4930637;29;20134;-71
2021/01/27 12:25:41;;;;;;;7.10;2.92;;;0.90;99.90;;;;;;4932119;29;20051;-70
2021/01/27 12:28:08;;;;;;;9.38;5.03;;;0.80;99.90;;;;;;4946715;28;20055;-71
2021/01/27 12:30:34;;;;;;;8.68;4.47;;;0.80;99.90;;;;;;4927215;29;20052;-70
2021/01/27 12:33:01;;;;;;;10.23;3.92;;;0.70;99.90;;;;;;4928722;29;20051;-70
2021/01/27 12:35:28;;;;;;;10.70;3.67;;;0.80;99.90;;;;;;4927350;29;20056;-70
2021/01/27 12:37:54;;;;;;;9.98;4.15;;;0.80;99.90;;;;;;4929813;29;20535;-70
2021/01/27 12:40:22;;;;;;;11.25;5.25;;;0.80;99.90;;;;;;4929444;29;20103;-70
2021/01/27 12:42:50;;;;;;;8.25;4.75;;;0.70;99.90;;;;;;4931296;29;20067;-71
2021/01/27 12:45:21;;;;;;;8.07;3.67;;;0.80;99.90;;;;;;4926284;29;20517;-71
2021/01/27 12:47:47;;;;;;;7.05;4.00;;;0.80;99.90;;;;;;4929952;29;20173;-70
2021/01/27 12:50:15;;;;;;;9.63;5.40;;;0.80;99.90;;;;;;4930698;29;20126;-71
2021/01/27 12:52:42;;;;;;;9.10;5.07;;;0.80;99.90;;;;;;4930903;29;20150;-71
2021/01/27 12:55:11;;;;;;;9.13;5.25;;;0.80;99.90;;;;;;4931224;29;20075;-71
2021/01/27 12:57:40;;;;;;;12.45;5.18;;;0.70;99.90;;;;;;4929895;29;20059;-71
2021/01/27 13:00:08;;;;;;;15.15;5.82;;;0.90;99.90;;;;;;4931916;29;20086;-71
2021/01/27 13:02:36;;;;;;;7.40;3.88;;;0.80;99.90;;;;;;4927224;29;20051;-71
2021/01/27 13:05:04;;;;;;;9.55;5.40;;;0.80;99.90;;;;;;4930864;29;20073;-70
2021/01/27 13:07:30;;;;;;;8.13;4.82;;;0.80;99.90;;;;;;4929614;29;20391;-71
2021/01/27 13:09:56;;;;;;;9.35;4.57;;;0.70;99.90;;;;;;4929171;29;20051;-71
2021/01/27 13:12:24;;;;;;;8.52;4.07;;;0.80;99.90;;;;;;4929757;29;20087;-71
2021/01/27 13:14:51;;;;;;;14.02;6.20;;;0.80;99.90;;;;;;4927977;29;20468;-70
2021/01/27 13:17:37;;;;;;;8.63;5.32;;;0.80;99.90;;;;;;4928195;29;20048;-71
2021/01/27 13:20:06;;;;;;;10.18;4.78;;;0.70;99.90;;;;;;4930400;29;20052;-71
2021/01/27 13:22:32;;;;;;;9.95;5.63;;;0.70;99.90;;;;;;4929309;29;20122;-71
2021/01/27 13:24:59;;;;;;;10.25;5.35;;;0.80;99.90;;;;;;4931755;29;20087;-70
2021/01/27 13:27:26;;;;;;;10.45;5.38;;;0.80;99.90;;;;;;4926902;29;20083;-71